sensor_id;sensor_type;location;lat;lon;timestamp;pressure;altitude;pressure_sealevel;temperature;humidity
69630;BME280;56857;52.212;5.496;2022-09-12T00:00:30;101797.84;;;14.53;93.00
69630;BME280;56857;52.212;5.496;2022-09-12T00:02:55;101798.34;;;14.48;93.17
69630;BME280;56857;52.212;5.496;2022-09-12T00:05:21;101802.66;;;14.49;93.28
69630;BME280;56857;52.212;5.496;2022-09-12T00:07:47;101803.66;;;14.48;92.95
69630;BME280;56857;52.212;5.496;2022-09-12T00:10:13;101800.16;;;14.48;92.88
69630;BME280;56857;52.212;5.496;2022-09-12T00:12:39;101801.34;;;14.45;92.98
69630;BME280;56857;52.212;5.496;2022-09-12T00:15:05;101801.50;;;14.44;93.27
69630;BME280;56857;52.212;5.496;2022-09-12T00:17:33;101798.81;;;14.44;93.00
69630;BME280;56857;52.212;5.496;2022-09-12T00:19:59;101796.34;;;14.42;92.92
69630;BME280;56857;52.212;5.496;2022-09-12T00:22:24;101791.34;;;14.39;92.95
69630;BME280;56857;52.212;5.496;2022-09-12T00:24:49;101784.03;;;14.33;93.74
69630;BME280;56857;52.212;5.496;2022-09-12T00:27:15;101780.53;;;14.32;93.59
69630;BME280;56857;52.212;5.496;2022-09-12T00:29:40;101782.38;;;14.32;93.47
69630;BME280;56857;52.212;5.496;2022-09-12T00:32:06;101777.03;;;14.32;93.64
69630;BME280;56857;52.212;5.496;2022-09-12T00:34:31;101774.72;;;14.29;93.40
69630;BME280;56857;52.212;5.496;2022-09-12T00:36:56;101779.22;;;14.28;93.77
69630;BME280;56857;52.212;5.496;2022-09-12T00:39:22;101773.22;;;14.26;93.77
69630;BME280;56857;52.212;5.496;2022-09-12T00:41:47;101776.03;;;14.25;93.69
69630;BME280;56857;52.212;5.496;2022-09-12T00:49:33;101767.25;;;14.16;94.45
69630;BME280;56857;52.212;5.496;2022-09-12T00:52:06;101760.22;;;14.15;94.27
69630;BME280;56857;52.212;5.496;2022-09-12T00:54:38;101769.09;;;14.16;94.38
69630;BME280;56857;52.212;5.496;2022-09-12T00:57:07;101757.75;;;14.13;93.83
69630;BME280;56857;52.212;5.496;2022-09-12T00:59:52;101754.41;;;14.11;94.28
69630;BME280;56857;52.212;5.496;2022-09-12T01:02:20;101760.75;;;14.10;94.41
69630;BME280;56857;52.212;5.496;2022-09-12T01:04:46;101757.91;;;14.12;94.21
69630;BME280;56857;52.212;5.496;2022-09-12T01:07:11;101762.06;;;14.14;93.68
69630;BME280;56857;52.212;5.496;2022-09-12T01:09:37;101762.91;;;14.15;93.75
69630;BME280;56857;52.212;5.496;2022-09-12T01:12:04;101762.75;;;14.17;93.47
69630;BME280;56857;52.212;5.496;2022-09-12T01:14:30;101764.25;;;14.19;93.72
69630;BME280;56857;52.212;5.496;2022-09-12T01:16:56;101752.56;;;14.20;93.66
69630;BME280;56857;52.212;5.496;2022-09-12T01:31:24;101754.06;;;14.23;93.24
69630;BME280;56857;52.212;5.496;2022-09-12T01:34:21;101751.75;;;14.20;93.67
69630;BME280;56857;52.212;5.496;2022-09-12T01:39:19;101749.06;;;14.20;93.44
69630;BME280;56857;52.212;5.496;2022-09-12T01:45:08;101743.59;;;14.13;94.04
69630;BME280;56857;52.212;5.496;2022-09-12T01:47:39;101739.78;;;14.07;94.33
69630;BME280;56857;52.212;5.496;2022-09-12T01:50:18;101729.59;;;14.03;94.48
69630;BME280;56857;52.212;5.496;2022-09-12T01:52:57;101744.44;;;14.05;94.10
69630;BME280;56857;52.212;5.496;2022-09-12T01:55:36;101734.28;;;14.01;94.23
69630;BME280;56857;52.212;5.496;2022-09-12T01:58:20;101724.97;;;13.97;94.87
69630;BME280;56857;52.212;5.496;2022-09-12T02:01:11;101719.97;;;13.94;94.83
69630;BME280;56857;52.212;5.496;2022-09-12T02:03:42;101721.78;;;13.93;94.60
69630;BME280;56857;52.212;5.496;2022-09-12T02:06:18;101715.63;;;13.93;94.62
69630;BME280;56857;52.212;5.496;2022-09-12T02:08:57;101718.47;;;13.91;94.53
69630;BME280;56857;52.212;5.496;2022-09-12T02:11:27;101705.50;;;13.88;94.56
69630;BME280;56857;52.212;5.496;2022-09-12T02:14:03;101710.81;;;13.88;94.64
69630;BME280;56857;52.212;5.496;2022-09-12T02:16:31;101702.97;;;13.86;94.53
69630;BME280;56857;52.212;5.496;2022-09-12T02:19:23;101696.34;;;13.82;94.57
69630;BME280;56857;52.212;5.496;2022-09-12T02:21:53;101699.69;;;13.84;94.43
69630;BME280;56857;52.212;5.496;2022-09-12T02:24:21;101708.00;;;13.81;94.67
69630;BME280;56857;52.212;5.496;2022-09-12T02:26:49;101705.34;;;13.81;94.69
69630;BME280;56857;52.212;5.496;2022-09-12T02:29:16;101709.00;;;13.80;94.36
69630;BME280;56857;52.212;5.496;2022-09-12T02:31:47;101704.84;;;13.78;94.37
69630;BME280;56857;52.212;5.496;2022-09-12T02:34:20;101708.34;;;13.78;94.81
69630;BME280;56857;52.212;5.496;2022-09-12T02:37:17;101701.34;;;13.77;94.59
69630;BME280;56857;52.212;5.496;2022-09-12T02:39:45;101708.34;;;13.78;94.83
69630;BME280;56857;52.212;5.496;2022-09-12T02:42:11;101700.69;;;13.75;94.67
69630;BME280;56857;52.212;5.496;2022-09-12T02:44:36;101703.34;;;13.75;94.59
69630;BME280;56857;52.212;5.496;2022-09-12T02:47:06;101694.69;;;13.73;94.47
69630;BME280;56857;52.212;5.496;2022-09-12T02:49:33;101695.69;;;13.72;94.28
69630;BME280;56857;52.212;5.496;2022-09-12T02:51:59;101695.03;;;13.70;94.21
69630;BME280;56857;52.212;5.496;2022-09-12T02:54:25;101688.38;;;13.66;94.93
69630;BME280;56857;52.212;5.496;2022-09-12T02:56:50;101678.06;;;13.63;95.00
69630;BME280;56857;52.212;5.496;2022-09-12T02:59:18;101682.72;;;13.61;95.03
69630;BME280;56857;52.212;5.496;2022-09-12T03:07:10;101663.75;;;13.56;95.81
69630;BME280;56857;52.212;5.496;2022-09-12T03:09:47;101669.91;;;13.56;95.02
69630;BME280;56857;52.212;5.496;2022-09-12T03:15:36;101666.41;;;13.56;95.55
69630;BME280;56857;52.212;5.496;2022-09-12T03:23:33;101658.59;;;13.54;95.12
69630;BME280;56857;52.212;5.496;2022-09-12T03:28:30;101659.59;;;13.53;95.43
69630;BME280;56857;52.212;5.496;2022-09-12T03:30:57;101658.91;;;13.51;95.64
69630;BME280;56857;52.212;5.496;2022-09-12T03:33:24;101664.25;;;13.51;95.58
69630;BME280;56857;52.212;5.496;2022-09-12T03:35:50;101661.44;;;13.53;95.36
69630;BME280;56857;52.212;5.496;2022-09-12T03:38:17;101658.91;;;13.51;95.38
69630;BME280;56857;52.212;5.496;2022-09-12T03:40:43;101661.59;;;13.51;95.11
69630;BME280;56857;52.212;5.496;2022-09-12T03:43:08;101669.56;;;13.51;95.12
69630;BME280;56857;52.212;5.496;2022-09-12T03:45:35;101668.75;;;13.51;94.68
69630;BME280;56857;52.212;5.496;2022-09-12T03:48:01;101660.75;;;13.51;94.74
69630;BME280;56857;52.212;5.496;2022-09-12T03:50:26;101660.75;;;13.51;94.90
69630;BME280;56857;52.212;5.496;2022-09-12T03:52:52;101659.09;;;13.50;94.78
69630;BME280;56857;52.212;5.496;2022-09-12T03:55:17;101657.41;;;13.49;95.14
69630;BME280;56857;52.212;5.496;2022-09-12T03:57:43;101645.44;;;13.44;95.36
69630;BME280;56857;52.212;5.496;2022-09-12T04:00:09;101652.44;;;13.45;95.36
69630;BME280;56857;52.212;5.496;2022-09-12T04:02:35;101650.97;;;13.43;95.24
69630;BME280;56857;52.212;5.496;2022-09-12T04:05:00;101640.31;;;13.43;95.16
69630;BME280;56857;52.212;5.496;2022-09-12T04:07:26;101644.63;;;13.44;95.02
69630;BME280;56857;52.212;5.496;2022-09-12T04:09:52;101643.63;;;13.45;94.64
69630;BME280;56857;52.212;5.496;2022-09-12T04:12:18;101640.13;;;13.44;94.91
69630;BME280;56857;52.212;5.496;2022-09-12T04:14:45;101631.63;;;13.41;94.88
69630;BME280;56857;52.212;5.496;2022-09-12T04:17:11;101637.31;;;13.38;95.48
69630;BME280;56857;52.212;5.496;2022-09-12T04:19:36;101639.13;;;13.37;95.10
69630;BME280;56857;52.212;5.496;2022-09-12T04:22:02;101638.47;;;13.35;95.32
69630;BME280;56857;52.212;5.496;2022-09-12T04:24:28;101637.78;;;13.33;95.23
69630;BME280;56857;52.212;5.496;2022-09-12T04:26:53;101633.31;;;13.34;95.33
69630;BME280;56857;52.212;5.496;2022-09-12T04:29:18;101632.47;;;13.33;95.23
69630;BME280;56857;52.212;5.496;2022-09-12T04:31:44;101633.47;;;13.32;95.05
69630;BME280;56857;52.212;5.496;2022-09-12T04:34:10;101638.47;;;13.35;94.90
69630;BME280;56857;52.212;5.496;2022-09-12T04:36:36;101637.31;;;13.38;94.55
69630;BME280;56857;52.212;5.496;2022-09-12T04:39:02;101639.63;;;13.41;94.55
69630;BME280;56857;52.212;5.496;2022-09-12T04:41:31;101633.47;;;13.40;94.24
69630;BME280;56857;52.212;5.496;2022-09-12T04:43:59;101644.78;;;13.42;94.18
69630;BME280;56857;52.212;5.496;2022-09-12T04:46:25;101641.13;;;13.43;94.12
69630;BME280;56857;52.212;5.496;2022-09-12T04:48:51;101644.63;;;13.44;93.96
69630;BME280;56857;52.212;5.496;2022-09-12T04:51:21;101633.28;;;13.42;94.29
69630;BME280;56857;52.212;5.496;2022-09-12T04:53:49;101638.47;;;13.43;93.96
69630;BME280;56857;52.212;5.496;2022-09-12T04:56:15;101638.47;;;13.43;94.25
69630;BME280;56857;52.212;5.496;2022-09-12T04:58:41;101634.78;;;13.44;94.48
69630;BME280;56857;52.212;5.496;2022-09-12T05:01:11;101638.13;;;13.47;94.49
69630;BME280;56857;52.212;5.496;2022-09-12T05:03:38;101636.09;;;13.49;94.40
69630;BME280;56857;52.212;5.496;2022-09-12T05:06:07;101634.28;;;13.49;94.07
69630;BME280;56857;52.212;5.496;2022-09-12T05:08:34;101640.28;;;13.51;94.21
69630;BME280;56857;52.212;5.496;2022-09-12T05:11:07;101640.13;;;13.53;94.34
69630;BME280;56857;52.212;5.496;2022-09-12T05:13:34;101635.44;;;13.55;93.95
69630;BME280;56857;52.212;5.496;2022-09-12T05:16:01;101632.63;;;13.56;94.03
69630;BME280;56857;52.212;5.496;2022-09-12T05:18:27;101631.59;;;13.57;94.16
69630;BME280;56857;52.212;5.496;2022-09-12T05:20:53;101623.47;;;13.59;94.43
69630;BME280;56857;52.212;5.496;2022-09-12T05:23:19;101629.63;;;13.59;94.72
69630;BME280;56857;52.212;5.496;2022-09-12T05:25:51;101623.28;;;13.60;94.97
69630;BME280;56857;52.212;5.496;2022-09-12T05:28:18;101625.78;;;13.62;94.53
69630;BME280;56857;52.212;5.496;2022-09-12T05:30:43;101634.09;;;13.67;94.27
69630;BME280;56857;52.212;5.496;2022-09-12T05:33:09;101634.75;;;13.69;94.57
69630;BME280;56857;52.212;5.496;2022-09-12T05:35:35;101626.75;;;13.69;94.47
69630;BME280;56857;52.212;5.496;2022-09-12T05:38:00;101625.59;;;13.72;94.59
69630;BME280;56857;52.212;5.496;2022-09-12T05:40:26;101625.41;;;13.73;94.45
69630;BME280;56857;52.212;5.496;2022-09-12T05:42:51;101623.41;;;13.75;94.66
69630;BME280;56857;52.212;5.496;2022-09-12T05:45:16;101627.72;;;13.76;94.42
69630;BME280;56857;52.212;5.496;2022-09-12T05:47:48;101625.75;;;13.78;94.52
69630;BME280;56857;52.212;5.496;2022-09-12T05:50:13;101628.22;;;13.80;94.54
69630;BME280;56857;52.212;5.496;2022-09-12T05:52:39;101623.56;;;13.82;94.98
69630;BME280;56857;52.212;5.496;2022-09-12T05:55:05;101618.22;;;13.82;94.66
69630;BME280;56857;52.212;5.496;2022-09-12T05:57:30;101610.88;;;13.84;94.40
69630;BME280;56857;52.212;5.496;2022-09-12T05:59:55;101613.53;;;13.84;94.63
69630;BME280;56857;52.212;5.496;2022-09-12T06:02:21;101613.38;;;13.85;94.90
69630;BME280;56857;52.212;5.496;2022-09-12T06:04:46;101622.38;;;13.84;94.96
69630;BME280;56857;52.212;5.496;2022-09-12T06:07:11;101618.72;;;13.85;95.32
69630;BME280;56857;52.212;5.496;2022-09-12T06:09:37;101618.88;;;13.84;94.88
69630;BME280;56857;52.212;5.496;2022-09-12T06:12:03;101619.72;;;13.84;94.96
69630;BME280;56857;52.212;5.496;2022-09-12T06:14:28;101619.53;;;13.86;94.83
69630;BME280;56857;52.212;5.496;2022-09-12T06:16:54;101617.69;;;13.86;94.85
69630;BME280;56857;52.212;5.496;2022-09-12T06:19:20;101623.84;;;13.87;95.11
69630;BME280;56857;52.212;5.496;2022-09-12T06:21:46;101630.03;;;13.87;94.96
69630;BME280;56857;52.212;5.496;2022-09-12T06:24:11;101631.69;;;13.88;94.99
69630;BME280;56857;52.212;5.496;2022-09-12T06:26:37;101631.50;;;13.90;95.23
69630;BME280;56857;52.212;5.496;2022-09-12T06:29:03;101630.53;;;13.91;95.16
69630;BME280;56857;52.212;5.496;2022-09-12T06:31:34;101626.84;;;13.92;95.38
69630;BME280;56857;52.212;5.496;2022-09-12T06:34:02;101631.16;;;13.93;95.35
69630;BME280;56857;52.212;5.496;2022-09-12T06:36:31;101626.84;;;13.92;95.41
69630;BME280;56857;52.212;5.496;2022-09-12T06:39:06;101622.53;;;13.91;95.69
69630;BME280;56857;52.212;5.496;2022-09-12T06:41:32;101629.69;;;13.90;95.39
69630;BME280;56857;52.212;5.496;2022-09-12T06:43:59;101623.69;;;13.88;95.46
69630;BME280;56857;52.212;5.496;2022-09-12T06:46:25;101620.22;;;13.88;95.53
69630;BME280;56857;52.212;5.496;2022-09-12T06:48:51;101622.53;;;13.91;96.00
69630;BME280;56857;52.212;5.496;2022-09-12T06:51:18;101618.03;;;13.91;96.20
69630;BME280;56857;52.212;5.496;2022-09-12T06:53:44;101612.69;;;13.91;96.36
69630;BME280;56857;52.212;5.496;2022-09-12T06:56:17;101618.69;;;13.94;96.68
69630;BME280;56857;52.212;5.496;2022-09-12T06:58:44;101611.34;;;13.96;96.55
69630;BME280;56857;52.212;5.496;2022-09-12T07:01:17;101610.34;;;13.97;96.42
69630;BME280;56857;52.212;5.496;2022-09-12T07:03:47;101616.31;;;13.99;96.78
69630;BME280;56857;52.212;5.496;2022-09-12T07:06:15;101618.66;;;14.02;96.91
69630;BME280;56857;52.212;5.496;2022-09-12T07:08:41;101611.31;;;14.04;97.00
69630;BME280;56857;52.212;5.496;2022-09-12T07:11:18;101610.16;;;14.06;97.14
69630;BME280;56857;52.212;5.496;2022-09-12T07:13:45;101619.44;;;14.10;97.51
69630;BME280;56857;52.212;5.496;2022-09-12T07:16:11;101618.91;;;14.15;97.66
69630;BME280;56857;52.212;5.496;2022-09-12T07:18:38;101625.75;;;14.18;97.85
69630;BME280;56857;52.212;5.496;2022-09-12T07:21:06;101622.56;;;14.22;98.21
69630;BME280;56857;52.212;5.496;2022-09-12T07:23:32;101620.19;;;14.27;98.24
69630;BME280;56857;52.212;5.496;2022-09-12T07:25:59;101616.00;;;14.33;98.54
69630;BME280;56857;52.212;5.496;2022-09-12T07:28:27;101614.00;;;14.35;98.21
69630;BME280;56857;52.212;5.496;2022-09-12T07:30:53;101620.63;;;14.39;98.53
69630;BME280;56857;52.212;5.496;2022-09-12T07:33:20;101618.28;;;14.44;98.66
69630;BME280;56857;52.212;5.496;2022-09-12T07:35:45;101612.41;;;14.49;99.06
69630;BME280;56857;52.212;5.496;2022-09-12T07:38:10;101613.59;;;14.54;99.26
69630;BME280;56857;52.212;5.496;2022-09-12T07:40:36;101604.69;;;14.62;99.68
69630;BME280;56857;52.212;5.496;2022-09-12T07:43:01;101605.81;;;14.68;99.56
69630;BME280;56857;52.212;5.496;2022-09-12T07:45:26;101614.59;;;14.76;99.64
69630;BME280;56857;52.212;5.496;2022-09-12T07:47:53;101609.53;;;14.81;99.85
69630;BME280;56857;52.212;5.496;2022-09-12T07:50:18;101616.84;;;14.88;99.78
69630;BME280;56857;52.212;5.496;2022-09-12T07:52:43;101610.63;;;14.95;99.83
69630;BME280;56857;52.212;5.496;2022-09-12T07:55:09;101614.06;;;15.04;100.00
69630;BME280;56857;52.212;5.496;2022-09-12T07:57:34;101616.00;;;15.10;100.00
69630;BME280;56857;52.212;5.496;2022-09-12T08:00:00;101614.28;;;15.17;100.00
69630;BME280;56857;52.212;5.496;2022-09-12T08:02:25;101615.41;;;15.23;100.00
69630;BME280;56857;52.212;5.496;2022-09-12T08:04:51;101624.34;;;15.30;100.00
69630;BME280;56857;52.212;5.496;2022-09-12T08:07:16;101625.09;;;15.39;100.00
69630;BME280;56857;52.212;5.496;2022-09-12T08:09:42;101620.47;;;15.47;100.00
69630;BME280;56857;52.212;5.496;2022-09-12T08:12:07;101616.09;;;15.55;100.00
69630;BME280;56857;52.212;5.496;2022-09-12T08:14:32;101622.16;;;15.63;100.00
69630;BME280;56857;52.212;5.496;2022-09-12T08:16:58;101619.63;;;15.70;100.00
69630;BME280;56857;52.212;5.496;2022-09-12T08:19:23;101616.69;;;15.80;100.00
69630;BME280;56857;52.212;5.496;2022-09-12T08:21:48;101608.53;;;15.88;100.00
69630;BME280;56857;52.212;5.496;2022-09-12T08:24:14;101615.47;;;15.97;100.00
69630;BME280;56857;52.212;5.496;2022-09-12T08:26:39;101616.81;;;16.08;100.00
69630;BME280;56857;52.212;5.496;2022-09-12T08:29:04;101615.69;;;16.17;100.00
69630;BME280;56857;52.212;5.496;2022-09-12T08:31:30;101615.41;;;16.27;100.00
69630;BME280;56857;52.212;5.496;2022-09-12T08:33:56;101614.09;;;16.37;100.00
69630;BME280;56857;52.212;5.496;2022-09-12T08:36:25;101615.44;;;16.48;100.00
69630;BME280;56857;52.212;5.496;2022-09-12T08:38:58;101617.63;;;16.59;100.00
69630;BME280;56857;52.212;5.496;2022-09-12T08:41:28;101621.63;;;16.70;100.00
69630;BME280;56857;52.212;5.496;2022-09-12T08:52:39;101623.31;;;17.14;99.87
69630;BME280;56857;52.212;5.496;2022-09-12T08:55:34;101627.13;;;17.26;99.24
69630;BME280;56857;52.212;5.496;2022-09-12T08:58:22;101611.53;;;17.36;98.93
69630;BME280;56857;52.212;5.496;2022-09-12T09:00:56;101619.84;;;17.48;98.32
69630;BME280;56857;52.212;5.496;2022-09-12T09:03:55;101611.47;;;17.58;97.45
69630;BME280;56857;52.212;5.496;2022-09-12T09:12:39;101594.16;;;17.95;96.64
69630;BME280;56857;52.212;5.496;2022-09-12T09:18:15;101592.19;;;18.17;95.46
69630;BME280;56857;52.212;5.496;2022-09-12T09:20:50;101597.59;;;18.30;95.24
69630;BME280;56857;52.212;5.496;2022-09-12T09:23:28;101586.88;;;18.44;95.25
69630;BME280;56857;52.212;5.496;2022-09-12T09:28:38;101594.78;;;18.72;94.13
69630;BME280;56857;52.212;5.496;2022-09-12T09:31:17;101586.97;;;18.84;93.60
69630;BME280;56857;52.212;5.496;2022-09-12T09:33:45;101592.56;;;18.95;93.02
69630;BME280;56857;52.212;5.496;2022-09-12T09:36:24;101588.44;;;19.06;92.78
69630;BME280;56857;52.212;5.496;2022-09-12T09:44:31;101591.50;;;19.36;89.84
69630;BME280;56857;52.212;5.496;2022-09-12T09:46:57;101585.47;;;19.48;88.81
69630;BME280;56857;52.212;5.496;2022-09-12T09:49:26;101586.50;;;19.60;88.20
69630;BME280;56857;52.212;5.496;2022-09-12T09:51:53;101575.13;;;19.71;87.36
69630;BME280;56857;52.212;5.496;2022-09-12T09:54:35;101568.47;;;19.80;86.83
69630;BME280;56857;52.212;5.496;2022-09-12T09:57:02;101569.47;;;19.93;86.44
69630;BME280;56857;52.212;5.496;2022-09-12T09:59:30;101561.91;;;20.08;85.73
69630;BME280;56857;52.212;5.496;2022-09-12T10:01:58;101568.66;;;20.24;84.77
69630;BME280;56857;52.212;5.496;2022-09-12T10:04:26;101567.56;;;20.38;84.85
69630;BME280;56857;52.212;5.496;2022-09-12T10:06:55;101568.09;;;20.53;83.78
69630;BME280;56857;52.212;5.496;2022-09-12T10:09:24;101563.44;;;20.67;82.83
69630;BME280;56857;52.212;5.496;2022-09-12T10:11:51;101562.88;;;20.90;82.26
69630;BME280;56857;52.212;5.496;2022-09-12T10:14:40;101563.38;;;21.24;81.22
69630;BME280;56857;52.212;5.496;2022-09-12T10:17:31;101559.22;;;21.46;78.90
69630;BME280;56857;52.212;5.496;2022-09-12T10:20:03;101550.09;;;21.66;77.81
69630;BME280;56857;52.212;5.496;2022-09-12T10:22:29;101549.84;;;21.86;76.09
69630;BME280;56857;52.212;5.496;2022-09-12T10:24:58;101540.75;;;21.98;74.80
69630;BME280;56857;52.212;5.496;2022-09-12T10:27:27;101542.66;;;22.10;74.05
69630;BME280;56857;52.212;5.496;2022-09-12T10:30:16;101541.47;;;22.24;72.79
69630;BME280;56857;52.212;5.496;2022-09-12T10:32:47;101536.56;;;22.44;71.57
69630;BME280;56857;52.212;5.496;2022-09-12T10:35:17;101528.75;;;22.55;72.11
69630;BME280;56857;52.212;5.496;2022-09-12T10:38:30;101539.09;;;22.70;70.90
69630;BME280;56857;52.212;5.496;2022-09-12T10:41:03;101538.41;;;22.74;69.51
69630;BME280;56857;52.212;5.496;2022-09-12T10:45:59;101526.00;;;22.97;68.41
69630;BME280;56857;52.212;5.496;2022-09-12T10:48:48;101526.94;;;23.14;67.58
69630;BME280;56857;52.212;5.496;2022-09-12T10:53:50;101520.41;;;23.50;67.67
69630;BME280;56857;52.212;5.496;2022-09-12T10:56:27;101514.47;;;23.65;66.04
69630;BME280;56857;52.212;5.496;2022-09-12T10:59:24;101510.94;;;23.76;65.80
69630;BME280;56857;52.212;5.496;2022-09-12T11:02:29;101508.19;;;23.88;65.57
69630;BME280;56857;52.212;5.496;2022-09-12T11:05:05;101525.06;;;24.07;64.41
69630;BME280;56857;52.212;5.496;2022-09-12T11:07:42;101510.53;;;24.13;62.43
69630;BME280;56857;52.212;5.496;2022-09-12T11:18:59;101507.56;;;23.69;62.92
69630;BME280;56857;52.212;5.496;2022-09-12T11:21:40;101505.47;;;23.48;62.58
69630;BME280;56857;52.212;5.496;2022-09-12T11:30:16;101501.53;;;23.03;64.38
69630;BME280;56857;52.212;5.496;2022-09-12T11:35:32;101506.91;;;22.91;63.96
69630;BME280;56857;52.212;5.496;2022-09-12T11:40:50;101503.84;;;22.88;64.67
69630;BME280;56857;52.212;5.496;2022-09-12T11:46:18;101501.19;;;23.11;64.30
69630;BME280;56857;52.212;5.496;2022-09-12T11:54:48;101495.25;;;23.26;63.29
69630;BME280;56857;52.212;5.496;2022-09-12T11:57:30;101481.97;;;23.36;63.18
69630;BME280;56857;52.212;5.496;2022-09-12T12:00:03;101482.63;;;23.55;62.37
69630;BME280;56857;52.212;5.496;2022-09-12T12:03:12;101490.25;;;23.70;60.99
69630;BME280;56857;52.212;5.496;2022-09-12T12:05:23;101483.66;;;23.95;60.07
69630;BME280;56857;52.212;5.496;2022-09-12T12:07:51;101481.66;;;24.19;60.78
69630;BME280;56857;52.212;5.496;2022-09-12T12:10:36;101478.47;;;24.39;60.06
69630;BME280;56857;52.212;5.496;2022-09-12T12:13:04;101472.50;;;24.54;59.00
69630;BME280;56857;52.212;5.496;2022-09-12T12:15:34;101483.81;;;24.67;59.07
69630;BME280;56857;52.212;5.496;2022-09-12T12:18:03;101475.34;;;24.81;58.34
69630;BME280;56857;52.212;5.496;2022-09-12T12:20:30;101479.03;;;24.91;56.83
69630;BME280;56857;52.212;5.496;2022-09-12T12:22:55;101473.34;;;24.93;57.17
69630;BME280;56857;52.212;5.496;2022-09-12T12:25:24;101474.34;;;25.04;56.36
69630;BME280;56857;52.212;5.496;2022-09-12T12:27:54;101469.88;;;25.14;55.92
69630;BME280;56857;52.212;5.496;2022-09-12T12:33:51;101477.78;;;25.38;56.66
69630;BME280;56857;52.212;5.496;2022-09-12T12:36:03;101468.94;;;25.48;56.28
69630;BME280;56857;52.212;5.496;2022-09-12T12:38:32;101460.59;;;25.54;55.88
69630;BME280;56857;52.212;5.496;2022-09-12T12:43:42;101455.34;;;25.70;55.55
69630;BME280;56857;52.212;5.496;2022-09-12T12:46:10;101449.94;;;25.75;54.77
69630;BME280;56857;52.212;5.496;2022-09-12T12:48:50;101445.66;;;25.79;54.84
69630;BME280;56857;52.212;5.496;2022-09-12T12:54:01;101441.63;;;25.81;52.92
69630;BME280;56857;52.212;5.496;2022-09-12T12:56:33;101427.47;;;25.79;53.16
69630;BME280;56857;52.212;5.496;2022-09-12T12:59:01;101431.81;;;25.80;52.54
69630;BME280;56857;52.212;5.496;2022-09-12T13:01:30;101422.63;;;25.81;52.77
69630;BME280;56857;52.212;5.496;2022-09-12T13:04:10;101435.94;;;25.83;53.35
69630;BME280;56857;52.212;5.496;2022-09-12T13:06:39;101413.03;;;25.74;52.62
69630;BME280;56857;52.212;5.496;2022-09-12T13:11:35;101414.63;;;25.70;52.50
69630;BME280;56857;52.212;5.496;2022-09-12T13:14:04;101405.91;;;25.67;52.97
69630;BME280;56857;52.212;5.496;2022-09-12T13:16:37;101404.59;;;25.75;52.94
69630;BME280;56857;52.212;5.496;2022-09-12T13:19:05;101403.09;;;25.84;52.96
69630;BME280;56857;52.212;5.496;2022-09-12T13:21:34;101399.63;;;25.94;53.07
69630;BME280;56857;52.212;5.496;2022-09-12T13:26:25;101398.97;;;25.82;51.76
69630;BME280;56857;52.212;5.496;2022-09-12T13:31:37;101387.50;;;25.48;52.15
69630;BME280;56857;52.212;5.496;2022-09-12T13:34:04;101379.75;;;25.34;50.92
69630;BME280;56857;52.212;5.496;2022-09-12T13:39:23;101375.09;;;25.08;51.44
69630;BME280;56857;52.212;5.496;2022-09-12T13:44:23;101377.53;;;24.87;52.30
69630;BME280;56857;52.212;5.496;2022-09-12T13:46:52;101375.28;;;24.79;52.14
69630;BME280;56857;52.212;5.496;2022-09-12T13:49:22;101373.50;;;24.68;52.38
69630;BME280;56857;52.212;5.496;2022-09-12T13:51:58;101370.06;;;24.56;52.66
69630;BME280;56857;52.212;5.496;2022-09-12T13:54:26;101370.75;;;24.46;53.09
69630;BME280;56857;52.212;5.496;2022-09-12T13:56:51;101377.88;;;24.35;52.53
69630;BME280;56857;52.212;5.496;2022-09-12T13:59:17;101369.84;;;24.23;53.55
69630;BME280;56857;52.212;5.496;2022-09-12T14:01:47;101375.44;;;24.17;54.58
69630;BME280;56857;52.212;5.496;2022-09-12T14:04:22;101373.16;;;24.09;54.38
69630;BME280;56857;52.212;5.496;2022-09-12T14:06:51;101368.72;;;24.02;54.76
69630;BME280;56857;52.212;5.496;2022-09-12T14:09:25;101363.44;;;23.96;54.53
69630;BME280;56857;52.212;5.496;2022-09-12T14:11:51;101364.19;;;23.91;54.58
69630;BME280;56857;52.212;5.496;2022-09-12T14:14:22;101360.56;;;23.86;55.03
69630;BME280;56857;52.212;5.496;2022-09-12T14:16:51;101355.31;;;23.79;55.84
69630;BME280;56857;52.212;5.496;2022-09-12T14:19:18;101356.88;;;23.75;55.50
69630;BME280;56857;52.212;5.496;2022-09-12T14:21:45;101354.66;;;23.72;55.78
69630;BME280;56857;52.212;5.496;2022-09-12T14:24:12;101357.00;;;23.68;55.62
69630;BME280;56857;52.212;5.496;2022-09-12T14:26:38;101354.22;;;23.63;56.16
69630;BME280;56857;52.212;5.496;2022-09-12T14:29:05;101343.06;;;23.59;56.21
69630;BME280;56857;52.212;5.496;2022-09-12T14:31:35;101342.13;;;23.54;55.97
69630;BME280;56857;52.212;5.496;2022-09-12T14:34:15;101331.72;;;23.46;56.44
69630;BME280;56857;52.212;5.496;2022-09-12T14:36:52;101321.03;;;23.39;56.14
69630;BME280;56857;52.212;5.496;2022-09-12T14:39:31;101319.06;;;23.34;56.24
69630;BME280;56857;52.212;5.496;2022-09-12T14:42:04;101331.19;;;23.32;56.85
69630;BME280;56857;52.212;5.496;2022-09-12T14:44:31;101318.13;;;23.29;57.05
69630;BME280;56857;52.212;5.496;2022-09-12T14:47:09;101315.44;;;23.29;57.36
69630;BME280;56857;52.212;5.496;2022-09-12T14:49:36;101312.50;;;23.30;56.84
69630;BME280;56857;52.212;5.496;2022-09-12T14:52:04;101316.25;;;23.29;56.80
69630;BME280;56857;52.212;5.496;2022-09-12T14:59:27;101309.88;;;23.35;56.79
69630;BME280;56857;52.212;5.496;2022-09-12T15:04:44;101306.03;;;23.31;57.19
69630;BME280;56857;52.212;5.496;2022-09-12T15:07:32;101303.47;;;23.25;56.83
69630;BME280;56857;52.212;5.496;2022-09-12T15:10:00;101290.31;;;23.17;56.57
69630;BME280;56857;52.212;5.496;2022-09-12T15:12:26;101294.72;;;23.06;56.41